Terminal Aerodrome Forecast
Issued by NWS

Home | Current Version | Previous Version | Text Only | Print | Product List | Glossary On
Versions: 1 2 3 4 5 6 7 8 9 10 11 12 13 14 15
000
FTUS46 KPDT 271100
TAFDLS
TAF
KDLS 271140Z 2712/2812 VRB05KT P6SM VCSH BKN020 OVC040
     FM271300 31007KT 3SM -RA BR OVC020
     FM280000 33013KT P6SM BKN050=

USA.gov is the U.S. government's official web portal to all federal, state and local government web resources and services.